createdAt,value
2017-10-26T00:00:33.205Z,18.8
2017-10-26T00:01:34.811Z,18.3
2017-10-26T00:02:36.424Z,19.8
2017-10-26T00:04:48.025Z,21.7
2017-10-26T00:05:49.639Z,21.1
2017-10-26T00:06:51.254Z,20.8
2017-10-26T00:07:52.866Z,21.6
2017-10-26T00:08:54.486Z,20.4
2017-10-26T00:09:56.099Z,20.3
2017-10-26T00:10:57.715Z,20.4
2017-10-26T00:11:59.329Z,20.1
2017-10-26T00:13:00.943Z,21.3
2017-10-26T00:14:02.561Z,21.9
2017-10-26T00:15:04.174Z,22.4
2017-10-26T00:16:05.793Z,21.9
2017-10-26T00:17:07.401Z,21.4
2017-10-26T00:18:09.017Z,21.1
2017-10-26T00:19:10.633Z,20.1
2017-10-26T00:20:12.245Z,21.2
2017-10-26T00:21:13.864Z,21.1
2017-10-26T00:22:15.480Z,20.3
2017-10-26T00:23:17.093Z,21.4
2017-10-26T00:24:18.708Z,22.3
2017-10-26T00:25:20.324Z,21.6
2017-10-26T00:26:21.943Z,20.4
2017-10-26T00:27:23.555Z,20.4
2017-10-26T00:28:25.168Z,20.9
2017-10-26T00:29:26.823Z,19.7
2017-10-26T00:30:28.421Z,20.3
2017-10-26T00:31:30.029Z,20.9
2017-10-26T00:32:31.642Z,19.6
2017-10-26T00:33:33.258Z,20.4
2017-10-26T00:34:34.875Z,21.4
2017-10-26T00:35:36.490Z,20.7
2017-10-26T00:36:38.102Z,19.9
2017-10-26T00:37:39.719Z,20.2
2017-10-26T00:38:41.334Z,20.4
2017-10-26T00:39:42.949Z,19.8
2017-10-26T00:40:44.566Z,18.9
2017-10-26T00:41:46.179Z,19.2
2017-10-26T00:42:47.797Z,20.2
2017-10-26T00:43:49.411Z,20.1
2017-10-26T00:44:51.028Z,20.1
2017-10-26T00:45:52.641Z,19.8
2017-10-26T00:46:54.254Z,18.9
2017-10-26T00:47:55.871Z,19.3
2017-10-26T00:48:57.483Z,20.1
2017-10-26T00:49:59.099Z,20.1
2017-10-26T00:51:00.713Z,20.1
2017-10-26T00:52:02.331Z,20.0
2017-10-26T00:53:03.948Z,20.5
2017-10-26T00:54:05.563Z,21.1
2017-10-26T00:55:07.177Z,21.7
2017-10-26T00:56:08.793Z,21.5
2017-10-26T00:57:10.412Z,20.5
2017-10-26T00:58:12.022Z,21.4
2017-10-26T00:59:13.638Z,20.8
2017-10-26T01:00:15.251Z,21.3
2017-10-26T01:01:16.867Z,21.7
2017-10-26T01:02:18.484Z,21.5
2017-10-26T01:03:20.098Z,21.3
2017-10-26T01:04:21.712Z,22.2
2017-10-26T01:05:23.328Z,22.4
2017-10-26T01:06:24.944Z,21.4
2017-10-26T01:07:26.561Z,21.4
2017-10-26T01:08:28.177Z,20.6
2017-10-26T01:09:29.797Z,20.8
2017-10-26T01:10:31.405Z,20.3
2017-10-26T01:11:33.022Z,20.7
2017-10-26T01:12:34.638Z,20.7
2017-10-26T01:13:36.256Z,20.9
2017-10-26T01:14:37.869Z,20.2
2017-10-26T01:15:39.487Z,20.5
2017-10-26T01:16:41.099Z,21.4
2017-10-26T01:17:42.712Z,22.0
2017-10-26T01:18:44.325Z,20.8
2017-10-26T01:19:45.941Z,22.2
2017-10-26T01:20:47.557Z,22.0
2017-10-26T01:21:49.174Z,21.6
2017-10-26T01:22:50.786Z,21.5
2017-10-26T01:23:52.402Z,21.0
2017-10-26T01:24:54.016Z,21.7
2017-10-26T01:25:55.629Z,21.9
2017-10-26T01:26:57.242Z,22.7
2017-10-26T01:27:58.857Z,22.1
2017-10-26T01:29:00.474Z,23.5
2017-10-26T01:30:02.100Z,22.2
2017-10-26T01:31:03.707Z,21.3
2017-10-26T01:32:05.320Z,21.9
2017-10-26T01:33:06.931Z,21.8
2017-10-26T01:34:08.545Z,21.2
2017-10-26T01:35:10.159Z,21.1
2017-10-26T01:36:11.776Z,21.9
2017-10-26T01:37:13.396Z,20.9
2017-10-26T01:38:15.012Z,20.5
2017-10-26T01:39:16.623Z,21.0
2017-10-26T01:40:18.236Z,21.3
2017-10-26T01:41:19.851Z,22.6
2017-10-26T01:42:21.464Z,22.9
2017-10-26T01:43:23.079Z,22.2
2017-10-26T01:44:24.694Z,23.9
2017-10-26T01:45:26.311Z,23.4
2017-10-26T01:46:27.928Z,23.9
2017-10-26T01:47:29.542Z,24.6
2017-10-26T01:48:31.155Z,22.7
2017-10-26T01:49:32.771Z,22.7
2017-10-26T01:50:34.385Z,22.3
2017-10-26T01:51:36.009Z,22.1
2017-10-26T01:52:37.615Z,21.1
2017-10-26T01:53:39.232Z,22.4
2017-10-26T01:54:40.850Z,22.3
2017-10-26T01:55:42.464Z,22.4
2017-10-26T01:56:44.084Z,23.0
2017-10-26T01:57:45.692Z,22.8
2017-10-26T01:58:47.307Z,24.0
2017-10-26T01:59:48.925Z,23.4
2017-10-26T02:00:50.538Z,24.1
2017-10-26T02:01:52.155Z,22.3
2017-10-26T02:02:53.768Z,21.2
2017-10-26T02:03:55.382Z,21.6
2017-10-26T02:04:56.998Z,22.9
2017-10-26T02:05:58.610Z,20.5
2017-10-26T02:07:00.228Z,20.9
2017-10-26T02:08:01.842Z,20.8
2017-10-26T02:09:03.456Z,22.5
2017-10-26T02:10:05.072Z,22.4
2017-10-26T02:11:06.688Z,21.6
2017-10-26T02:12:08.305Z,21.8
2017-10-26T02:13:09.921Z,21.7
2017-10-26T02:14:11.534Z,22.1
2017-10-26T02:15:13.150Z,23.3
2017-10-26T02:16:14.767Z,23.7
2017-10-26T02:17:16.381Z,22.4
2017-10-26T02:18:17.997Z,23.4
2017-10-26T02:19:19.613Z,22.6
2017-10-26T02:20:21.227Z,22.7
2017-10-26T02:21:22.842Z,23.5
2017-10-26T02:22:24.455Z,21.9
2017-10-26T02:23:26.072Z,21.7
2017-10-26T02:24:27.686Z,22.3
2017-10-26T02:25:29.302Z,22.7
2017-10-26T02:26:30.919Z,21.7
2017-10-26T02:27:32.534Z,25.4
2017-10-26T02:28:34.155Z,24.7
2017-10-26T02:29:35.764Z,23.0
2017-10-26T02:30:37.378Z,22.0
2017-10-26T02:31:38.992Z,22.0
2017-10-26T02:32:40.608Z,24.9
2017-10-26T02:33:42.228Z,24.9
2017-10-26T02:34:43.839Z,24.4
2017-10-26T02:35:45.456Z,24.9
2017-10-26T02:36:47.067Z,25.0
2017-10-26T02:37:48.680Z,26.2
2017-10-26T02:38:50.293Z,26.3
2017-10-26T02:39:51.911Z,25.9
2017-10-26T02:40:53.525Z,24.9
2017-10-26T02:41:55.143Z,25.6
2017-10-26T02:42:56.758Z,24.1
2017-10-26T02:43:58.372Z,25.7
2017-10-26T02:44:59.991Z,26.1
2017-10-26T02:46:01.602Z,24.5
2017-10-26T02:47:03.213Z,27.0
2017-10-26T02:48:04.829Z,24.7
2017-10-26T02:49:06.448Z,26.3
2017-10-26T02:50:08.065Z,25.0
2017-10-26T02:51:09.678Z,24.6
2017-10-26T02:52:11.295Z,24.6
2017-10-26T02:53:12.907Z,25.4
2017-10-26T02:54:14.528Z,24.2
2017-10-26T02:55:16.138Z,24.3
2017-10-26T02:56:17.756Z,24.1
2017-10-26T02:57:19.373Z,24.1
2017-10-26T02:58:20.985Z,27.8
2017-10-26T02:59:22.601Z,25.6
2017-10-26T03:00:24.214Z,26.4
2017-10-26T03:01:25.828Z,28.0
2017-10-26T03:02:27.443Z,25.0
2017-10-26T03:03:29.061Z,23.4
2017-10-26T03:04:30.679Z,22.2
2017-10-26T03:05:32.293Z,22.5
2017-10-26T03:06:33.909Z,22.1
2017-10-26T03:07:35.523Z,22.0
2017-10-26T03:08:37.148Z,22.0
2017-10-26T03:09:38.751Z,23.7
2017-10-26T03:10:40.366Z,23.1
2017-10-26T03:11:41.985Z,22.8
2017-10-26T03:12:43.599Z,23.7
2017-10-26T03:13:45.213Z,24.1
2017-10-26T03:14:46.830Z,24.3
2017-10-26T03:15:48.440Z,23.6
2017-10-26T03:16:50.056Z,22.4
2017-10-26T03:17:51.672Z,22.8
2017-10-26T03:18:53.289Z,22.7
2017-10-26T03:19:54.904Z,23.8
2017-10-26T03:20:56.526Z,23.4
2017-10-26T03:21:58.137Z,23.5
2017-10-26T03:22:59.751Z,26.0
2017-10-26T03:24:01.366Z,27.1
2017-10-26T03:25:02.984Z,26.1
2017-10-26T03:26:04.601Z,28.2
2017-10-26T03:27:06.219Z,28.2
2017-10-26T03:28:07.829Z,30.0
2017-10-26T03:29:09.444Z,27.6
2017-10-26T03:30:11.062Z,27.6
2017-10-26T03:31:12.675Z,28.7
2017-10-26T03:32:14.290Z,28.3
2017-10-26T03:33:15.906Z,28.4
2017-10-26T03:34:17.524Z,28.4
2017-10-26T03:35:19.137Z,28.7
2017-10-26T03:36:20.751Z,27.5
2017-10-26T03:37:22.367Z,28.3
2017-10-26T03:38:23.980Z,27.0
2017-10-26T03:39:25.602Z,26.5
2017-10-26T03:40:27.220Z,28.1
2017-10-26T03:41:28.834Z,25.3
2017-10-26T03:42:30.453Z,25.7
2017-10-26T03:43:32.063Z,25.9
2017-10-26T03:44:33.677Z,25.4
2017-10-26T03:45:35.296Z,24.1
2017-10-26T03:46:36.910Z,23.7
2017-10-26T03:47:38.530Z,23.8
2017-10-26T03:48:40.145Z,24.4
2017-10-26T03:49:41.757Z,24.4
2017-10-26T03:50:43.372Z,23.9
2017-10-26T03:51:44.995Z,23.6
2017-10-26T03:52:46.599Z,24.1
2017-10-26T03:53:48.221Z,24.4
2017-10-26T03:54:49.840Z,25.1
2017-10-26T03:55:51.458Z,24.8
2017-10-26T03:56:53.070Z,24.2
2017-10-26T03:57:54.684Z,24.5
2017-10-26T03:58:56.301Z,23.4
2017-10-26T03:59:57.914Z,22.8
2017-10-26T04:00:59.530Z,20.3
2017-10-26T04:02:01.150Z,20.4
2017-10-26T04:03:02.761Z,20.0
2017-10-26T04:04:04.388Z,20.2
2017-10-26T04:05:05.991Z,21.2
2017-10-26T04:06:07.604Z,20.8
2017-10-26T04:07:09.219Z,22.4
2017-10-26T04:08:10.836Z,22.0
2017-10-26T04:09:12.452Z,24.0
2017-10-26T04:10:14.066Z,23.7
2017-10-26T04:11:15.682Z,24.9
2017-10-26T04:12:17.296Z,26.7
2017-10-26T04:13:18.910Z,26.1
2017-10-26T04:14:20.528Z,25.2
2017-10-26T04:15:22.139Z,25.0
2017-10-26T04:16:23.756Z,25.2
2017-10-26T04:17:25.370Z,25.1
2017-10-26T04:18:26.988Z,26.8
2017-10-26T04:19:28.599Z,24.5
2017-10-26T04:20:30.216Z,24.4
2017-10-26T04:21:31.831Z,24.6
2017-10-26T04:22:33.447Z,25.0
2017-10-26T04:23:35.064Z,23.2
2017-10-26T04:24:36.676Z,24.3
2017-10-26T04:25:38.293Z,23.7
2017-10-26T04:26:39.912Z,24.6
2017-10-26T04:27:41.525Z,23.4
2017-10-26T04:28:43.141Z,23.9
2017-10-26T04:29:44.757Z,24.3
2017-10-26T04:30:46.373Z,25.3
2017-10-26T04:31:47.996Z,25.7
2017-10-26T04:32:49.604Z,25.3
2017-10-26T04:33:51.218Z,25.7
2017-10-26T04:34:52.835Z,26.1
2017-10-26T04:35:54.448Z,26.0
2017-10-26T04:36:56.061Z,26.5
2017-10-26T04:37:57.678Z,25.5
2017-10-26T04:38:59.297Z,25.9
2017-10-26T04:40:00.910Z,25.7
2017-10-26T04:41:02.530Z,24.6
2017-10-26T04:42:04.144Z,25.3
2017-10-26T04:43:05.755Z,25.4
2017-10-26T04:44:07.369Z,24.3
2017-10-26T04:45:08.988Z,26.4
2017-10-26T04:46:10.601Z,24.6
2017-10-26T04:47:12.215Z,25.7
2017-10-26T04:48:13.829Z,25.9
2017-10-26T04:49:15.444Z,24.8
2017-10-26T04:50:17.060Z,25.7
2017-10-26T04:51:18.674Z,25.8
2017-10-26T04:52:20.290Z,26.1
2017-10-26T04:53:21.906Z,25.5
2017-10-26T04:54:23.521Z,25.0
2017-10-26T04:55:25.151Z,24.9
2017-10-26T04:56:26.754Z,25.6
2017-10-26T04:57:28.366Z,24.7
2017-10-26T04:58:29.981Z,25.6
2017-10-26T04:59:31.602Z,26.0
2017-10-26T05:00:33.214Z,26.3
2017-10-26T05:01:34.826Z,25.3
2017-10-26T05:02:36.442Z,27.3
2017-10-26T05:03:38.060Z,25.6
2017-10-26T05:04:39.677Z,24.8
2017-10-26T05:05:41.291Z,23.5
2017-10-26T05:06:42.907Z,24.2
2017-10-26T05:07:44.520Z,24.8
2017-10-26T05:08:46.138Z,24.1
2017-10-26T05:09:47.753Z,25.4
2017-10-26T05:10:49.374Z,24.4
2017-10-26T05:11:50.983Z,25.6
2017-10-26T05:12:52.598Z,25.0
2017-10-26T05:13:54.213Z,25.1
2017-10-26T05:14:55.826Z,24.3
2017-10-26T05:15:57.443Z,23.9
2017-10-26T05:16:59.061Z,23.6
2017-10-26T05:18:00.674Z,23.6
2017-10-26T05:19:02.289Z,23.6
2017-10-26T05:20:03.905Z,25.4
2017-10-26T05:21:05.538Z,24.7
2017-10-26T05:22:07.145Z,24.3
2017-10-26T05:23:08.750Z,25.1
2017-10-26T05:24:10.359Z,25.2
2017-10-26T05:25:11.995Z,24.7
2017-10-26T05:26:13.598Z,25.1
2017-10-26T05:27:15.210Z,25.0
2017-10-26T05:28:16.827Z,25.6
2017-10-26T05:29:18.446Z,25.5
2017-10-26T05:30:20.060Z,26.3
2017-10-26T05:31:21.676Z,24.8
2017-10-26T05:32:23.294Z,26.2
2017-10-26T05:33:24.909Z,27.4
2017-10-26T05:34:26.523Z,25.4
2017-10-26T05:35:28.138Z,25.3
2017-10-26T05:36:29.752Z,24.1
2017-10-26T05:37:31.367Z,24.3
2017-10-26T05:38:32.984Z,26.6
2017-10-26T05:39:34.599Z,25.1
2017-10-26T05:40:36.213Z,23.9
2017-10-26T05:41:37.831Z,24.3
2017-10-26T05:42:39.445Z,24.2
2017-10-26T05:43:41.057Z,25.7
2017-10-26T05:44:42.673Z,25.8
2017-10-26T05:45:44.286Z,25.9
2017-10-26T05:46:45.904Z,26.3
2017-10-26T05:47:47.518Z,27.8
2017-10-26T05:48:49.131Z,26.5
2017-10-26T05:49:50.748Z,26.6
2017-10-26T05:50:52.364Z,24.5
2017-10-26T05:51:53.981Z,26.8
2017-10-26T05:52:55.597Z,24.0
2017-10-26T05:53:57.223Z,24.8
2017-10-26T05:54:58.836Z,25.1
2017-10-26T05:56:00.450Z,26.8
2017-10-26T05:57:02.067Z,27.0
2017-10-26T05:58:03.680Z,26.7
2017-10-26T05:59:05.296Z,28.5
2017-10-26T06:00:06.915Z,27.2
2017-10-26T06:01:08.531Z,28.1
2017-10-26T06:02:10.149Z,28.0
2017-10-26T06:03:11.760Z,27.9
2017-10-26T06:04:13.379Z,28.2
2017-10-26T06:05:14.994Z,26.3
2017-10-26T06:06:16.615Z,25.3
2017-10-26T06:07:18.228Z,25.2
2017-10-26T06:08:19.843Z,25.5
2017-10-26T06:09:21.459Z,25.4
2017-10-26T06:10:23.074Z,27.5
2017-10-26T06:11:24.696Z,26.5
2017-10-26T06:12:26.312Z,24.0
2017-10-26T06:13:27.929Z,24.5
2017-10-26T06:14:29.541Z,24.5
2017-10-26T06:15:31.172Z,24.1
2017-10-26T06:16:32.791Z,24.5
2017-10-26T06:17:34.407Z,26.8
2017-10-26T06:18:36.025Z,26.2
2017-10-26T06:19:37.638Z,26.6
2017-10-26T06:20:39.254Z,25.1
2017-10-26T06:21:40.871Z,25.0
2017-10-26T06:22:42.491Z,23.8
2017-10-26T06:23:44.106Z,24.8
2017-10-26T06:24:45.726Z,25.6
2017-10-26T06:25:47.343Z,26.0
2017-10-26T06:26:48.960Z,27.3
2017-10-26T06:27:50.579Z,26.5
2017-10-26T06:28:52.196Z,25.5
2017-10-26T06:29:53.812Z,24.9
2017-10-26T06:30:55.430Z,26.5
2017-10-26T06:31:57.057Z,27.0
2017-10-26T06:32:58.674Z,26.8
2017-10-26T06:34:00.297Z,25.5
2017-10-26T06:35:01.909Z,25.2
2017-10-26T06:36:03.529Z,26.7
2017-10-26T06:37:05.148Z,25.6
2017-10-26T06:38:06.778Z,25.9
2017-10-26T06:39:08.384Z,26.0
2017-10-26T06:40:10.004Z,26.8
2017-10-26T06:41:11.621Z,26.8
2017-10-26T06:42:13.241Z,24.8
2017-10-26T06:43:14.859Z,25.8
2017-10-26T06:44:16.477Z,25.5
2017-10-26T06:45:18.095Z,25.7
2017-10-26T06:46:19.716Z,25.1
2017-10-26T06:47:21.337Z,25.2
2017-10-26T06:48:22.958Z,27.0
2017-10-26T06:49:24.573Z,26.2
2017-10-26T06:50:26.190Z,25.5
2017-10-26T06:51:27.811Z,25.5
2017-10-26T06:52:29.435Z,25.2
2017-10-26T06:53:31.048Z,24.4
2017-10-26T06:54:32.667Z,25.2
2017-10-26T06:55:34.302Z,25.9
2017-10-26T06:56:35.903Z,26.4
2017-10-26T06:57:37.518Z,25.6
2017-10-26T06:58:39.143Z,25.2
2017-10-26T06:59:40.763Z,25.3
2017-10-26T07:00:42.385Z,24.3
2017-10-26T07:01:44.002Z,23.6
2017-10-26T07:02:45.616Z,24.3
2017-10-26T07:03:47.237Z,25.7
2017-10-26T07:04:48.870Z,24.8
2017-10-26T07:05:50.494Z,24.1
2017-10-26T07:06:52.107Z,24.0
2017-10-26T07:07:53.738Z,24.2
2017-10-26T07:08:55.360Z,24.9
2017-10-26T07:09:56.975Z,25.4
2017-10-26T07:10:58.591Z,25.5
2017-10-26T07:12:00.209Z,24.4
2017-10-26T07:13:01.830Z,25.9
2017-10-26T07:14:03.448Z,24.7
2017-10-26T07:15:05.067Z,25.4
2017-10-26T07:16:06.687Z,25.4
2017-10-26T07:17:08.303Z,25.3
2017-10-26T07:18:09.924Z,25.1
2017-10-26T07:19:11.540Z,23.7
2017-10-26T07:20:13.161Z,11.2
2017-10-26T07:21:14.779Z,22.1
2017-10-26T07:22:16.403Z,25.6
2017-10-26T07:23:18.021Z,25.0
2017-10-26T07:24:19.637Z,25.8
2017-10-26T07:25:21.253Z,24.4
2017-10-26T07:26:22.872Z,25.9
2017-10-26T07:27:24.497Z,25.1
2017-10-26T07:28:26.119Z,25.5
2017-10-26T07:29:27.739Z,25.8
2017-10-26T07:30:29.359Z,26.3
2017-10-26T07:31:30.977Z,24.8
2017-10-26T07:32:32.599Z,25.3
2017-10-26T07:33:34.215Z,24.4
2017-10-26T07:34:35.836Z,25.6
2017-10-26T07:35:37.459Z,26.3
2017-10-26T07:36:39.077Z,24.6
2017-10-26T07:37:40.699Z,25.9
2017-10-26T07:38:42.315Z,25.7
2017-10-26T07:39:43.936Z,25.2
2017-10-26T07:40:45.554Z,25.0
2017-10-26T07:41:47.182Z,24.6
2017-10-26T07:42:48.806Z,24.6
2017-10-26T07:43:50.427Z,24.8
2017-10-26T07:44:52.050Z,24.7
2017-10-26T07:45:53.667Z,25.5
2017-10-26T07:46:55.286Z,24.8
2017-10-26T07:47:56.907Z,24.8
2017-10-26T07:48:58.526Z,24.7
2017-10-26T07:50:00.153Z,23.5
2017-10-26T07:51:01.770Z,23.7
2017-10-26T07:52:03.385Z,25.2
2017-10-26T07:53:05.007Z,23.9
2017-10-26T07:54:06.626Z,25.3
2017-10-26T07:55:08.246Z,24.1
2017-10-26T07:56:09.866Z,24.4
2017-10-26T07:57:11.490Z,23.9
2017-10-26T07:58:13.108Z,24.0
2017-10-26T07:59:14.730Z,24.5
2017-10-26T08:00:16.347Z,24.1
2017-10-26T08:01:17.964Z,24.6
2017-10-26T08:02:19.588Z,23.6
2017-10-26T08:03:21.201Z,23.5
2017-10-26T08:04:22.820Z,25.0
2017-10-26T08:05:24.446Z,23.2
2017-10-26T08:06:26.065Z,24.0
2017-10-26T08:07:27.685Z,23.1
2017-10-26T08:08:29.307Z,22.9
2017-10-26T08:09:30.926Z,23.2
2017-10-26T08:10:32.543Z,23.5
2017-10-26T08:11:34.165Z,23.5
2017-10-26T08:12:35.782Z,23.3
2017-10-26T08:13:37.404Z,23.3
2017-10-26T08:14:39.021Z,21.8
2017-10-26T08:15:40.641Z,22.5
2017-10-26T08:16:42.262Z,20.5
2017-10-26T08:17:43.885Z,21.8
2017-10-26T08:18:45.512Z,21.9
2017-10-26T08:19:47.141Z,21.5
2017-10-26T08:20:48.763Z,21.4
2017-10-26T08:21:50.381Z,21.7
2017-10-26T08:22:52.000Z,21.3
2017-10-26T08:23:53.622Z,21.9
2017-10-26T08:24:55.245Z,21.0
2017-10-26T08:25:56.864Z,21.2
2017-10-26T08:26:58.482Z,21.1
2017-10-26T08:28:00.104Z,20.4
2017-10-26T08:29:01.723Z,20.5
2017-10-26T08:30:03.343Z,19.6
2017-10-26T08:31:04.965Z,19.3
2017-10-26T08:32:06.592Z,19.1
2017-10-26T08:33:08.230Z,18.6
2017-10-26T08:34:09.856Z,19.2
2017-10-26T08:35:11.477Z,20.0
2017-10-26T08:36:13.095Z,20.0
2017-10-26T08:37:14.713Z,20.5
2017-10-26T08:38:16.332Z,19.2
2017-10-26T08:39:17.953Z,18.4
2017-10-26T08:40:19.575Z,19.5
2017-10-26T08:41:21.197Z,18.4
2017-10-26T08:42:22.847Z,18.1
2017-10-26T08:43:24.465Z,18.7
2017-10-26T08:44:26.089Z,18.9
2017-10-26T08:45:27.705Z,18.1
2017-10-26T08:46:29.333Z,18.7
2017-10-26T08:47:30.957Z,18.8
2017-10-26T08:48:32.578Z,18.4
2017-10-26T08:49:34.205Z,19.1
2017-10-26T08:50:35.825Z,18.6
2017-10-26T08:51:37.444Z,17.6
2017-10-26T08:52:39.065Z,18.6
2017-10-26T08:53:40.692Z,17.6
2017-10-26T08:54:42.317Z,17.8
2017-10-26T08:55:43.933Z,18.2
2017-10-26T08:56:45.557Z,17.5
2017-10-26T08:57:47.176Z,17.0
2017-10-26T08:58:48.798Z,16.4
2017-10-26T08:59:50.417Z,17.9
2017-10-26T09:00:52.039Z,17.5
2017-10-26T09:01:53.664Z,16.3
2017-10-26T09:02:55.283Z,16.9
2017-10-26T09:03:56.916Z,17.1
2017-10-26T09:04:58.530Z,15.7
2017-10-26T09:06:00.154Z,16.8
2017-10-26T09:07:01.774Z,16.0
2017-10-26T09:08:03.395Z,15.7
2017-10-26T09:09:05.017Z,16.6
2017-10-26T09:10:06.641Z,16.5
2017-10-26T09:11:08.264Z,16.0
2017-10-26T09:12:09.882Z,16.1
2017-10-26T09:13:11.512Z,16.1
2017-10-26T09:14:13.131Z,15.7
2017-10-26T09:15:14.752Z,16.4
2017-10-26T09:16:16.372Z,15.8
2017-10-26T09:17:18.003Z,15.0
2017-10-26T09:18:19.620Z,15.1
2017-10-26T09:19:21.240Z,15.1
2017-10-26T09:20:22.861Z,15.1
2017-10-26T09:21:24.484Z,15.9
2017-10-26T09:22:26.105Z,13.9
2017-10-26T09:23:27.730Z,15.1
2017-10-26T09:24:29.351Z,14.8
2017-10-26T09:25:30.972Z,15.2
2017-10-26T09:26:32.594Z,13.6
2017-10-26T09:27:34.212Z,14.4
2017-10-26T09:28:35.850Z,13.9
2017-10-26T09:29:37.453Z,13.2
2017-10-26T09:30:39.075Z,14.1
2017-10-26T09:31:40.698Z,13.1
2017-10-26T09:32:42.320Z,14.0
2017-10-26T09:33:43.946Z,13.4
2017-10-26T09:34:45.561Z,14.0
2017-10-26T09:35:47.180Z,14.4
2017-10-26T09:36:48.806Z,13.9
2017-10-26T09:37:50.421Z,13.6
2017-10-26T09:38:52.041Z,12.5
2017-10-26T09:39:53.661Z,13.0
2017-10-26T09:40:55.278Z,13.1
2017-10-26T09:41:56.905Z,11.8
2017-10-26T09:42:58.525Z,13.2
2017-10-26T09:44:00.144Z,12.4
2017-10-26T09:45:01.775Z,11.7
2017-10-26T09:46:03.389Z,11.6
2017-10-26T09:47:05.007Z,11.2
2017-10-26T09:48:06.628Z,10.9
2017-10-26T09:49:08.248Z,10.9
2017-10-26T09:50:09.866Z,10.8
2017-10-26T09:51:11.484Z,10.4
2017-10-26T09:52:13.107Z,10.6
2017-10-26T09:53:14.731Z,9.8
2017-10-26T09:54:16.359Z,10.4
2017-10-26T09:55:17.979Z,10.3
2017-10-26T09:56:19.614Z,10.4
2017-10-26T09:57:21.232Z,10.9
2017-10-26T09:58:22.850Z,10.2
2017-10-26T09:59:24.470Z,10.7
2017-10-26T10:00:26.093Z,10.3
2017-10-26T10:01:27.715Z,11.3
2017-10-26T10:02:29.342Z,10.4
2017-10-26T10:03:30.962Z,10.3
2017-10-26T10:04:32.582Z,10.4
2017-10-26T10:05:34.205Z,10.5
2017-10-26T10:06:35.828Z,11.0
2017-10-26T10:07:37.453Z,9.8
2017-10-26T10:08:39.070Z,10.2
2017-10-26T10:09:40.692Z,10.3
2017-10-26T10:10:42.314Z,10.1
2017-10-26T10:11:43.937Z,10.0
2017-10-26T10:12:45.559Z,10.1
2017-10-26T10:13:47.179Z,10.0
2017-10-26T10:14:48.803Z,9.9
2017-10-26T10:15:50.426Z,10.6
2017-10-26T10:16:52.045Z,10.4
2017-10-26T10:17:53.665Z,10.2
2017-10-26T10:18:55.286Z,9.9
2017-10-26T10:19:56.908Z,9.8
2017-10-26T10:20:58.530Z,9.5
2017-10-26T10:22:00.149Z,9.9
2017-10-26T10:23:08.216Z,10.3
2017-10-26T10:24:09.885Z,9.8
2017-10-26T10:25:11.637Z,9.8
2017-10-26T10:26:13.261Z,10.1
2017-10-26T10:27:14.887Z,10.0
2017-10-26T10:28:16.662Z,9.9
2017-10-26T10:29:18.278Z,10.1
2017-10-26T10:30:19.911Z,10.2
2017-10-26T10:31:21.519Z,9.8
2017-10-26T10:32:23.140Z,10.1
2017-10-26T10:33:24.796Z,10.2
2017-10-26T10:34:26.415Z,10.0
2017-10-26T10:35:28.040Z,10.1
2017-10-26T10:36:29.661Z,10.2
2017-10-26T10:37:31.284Z,10.3
2017-10-26T10:38:32.903Z,10.2
2017-10-26T10:39:34.521Z,9.4
2017-10-26T10:40:36.138Z,9.6
2017-10-26T10:41:37.756Z,9.4
2017-10-26T10:42:39.377Z,9.1
2017-10-26T10:43:41.000Z,9.8
2017-10-26T10:44:42.622Z,10.3
2017-10-26T10:45:44.240Z,9.9
2017-10-26T10:46:45.859Z,9.6
2017-10-26T10:47:47.482Z,9.2
2017-10-26T10:48:49.098Z,9.4
2017-10-26T10:49:50.717Z,10.1
2017-10-26T10:50:52.339Z,9.6
2017-10-26T10:51:53.960Z,10.3
2017-10-26T10:52:55.580Z,9.5
2017-10-26T10:53:57.200Z,9.8
2017-10-26T10:54:58.821Z,9.1
2017-10-26T10:56:01.287Z,9.4
2017-10-26T10:57:02.883Z,9.4
2017-10-26T10:58:04.505Z,9.3
2017-10-26T10:59:06.126Z,9.2
2017-10-26T11:00:07.745Z,9.8
2017-10-26T11:01:09.364Z,9.3
2017-10-26T11:02:10.983Z,9.5
2017-10-26T11:03:12.602Z,10.5
2017-10-26T11:04:14.231Z,9.0
2017-10-26T11:05:15.853Z,9.0
2017-10-26T11:06:17.498Z,8.9
2017-10-26T11:07:19.115Z,8.7
2017-10-26T11:08:20.733Z,9.0
2017-10-26T11:09:22.359Z,8.3
2017-10-26T11:10:23.984Z,8.4
2017-10-26T11:11:25.603Z,8.5
2017-10-26T11:12:27.222Z,7.9
2017-10-26T11:13:28.840Z,7.6
2017-10-26T11:14:30.456Z,7.7
2017-10-26T11:15:32.084Z,7.6
2017-10-26T11:16:33.703Z,7.7
2017-10-26T11:17:35.321Z,7.8
2017-10-26T11:18:36.939Z,7.8
2017-10-26T11:19:38.557Z,8.4
2017-10-26T11:20:40.173Z,7.6
2017-10-26T11:21:41.798Z,7.8
2017-10-26T11:22:43.440Z,7.8
2017-10-26T11:23:45.064Z,7.8
2017-10-26T11:24:46.685Z,7.4
2017-10-26T11:25:48.304Z,7.0
2017-10-26T11:26:49.924Z,7.4
2017-10-26T11:27:51.546Z,6.8
2017-10-26T11:28:53.168Z,6.6
2017-10-26T11:29:54.789Z,6.7
2017-10-26T11:30:56.411Z,6.8
2017-10-26T11:31:58.036Z,6.3
2017-10-26T11:32:59.655Z,6.7
2017-10-26T11:34:01.279Z,7.2
2017-10-26T11:35:02.899Z,6.5
2017-10-26T11:36:04.515Z,6.3
2017-10-26T11:37:06.135Z,6.1
2017-10-26T11:38:07.754Z,6.3
2017-10-26T11:39:09.375Z,7.1
2017-10-26T11:40:10.994Z,6.9
2017-10-26T11:41:12.616Z,6.9
2017-10-26T11:42:14.238Z,7.2
2017-10-26T11:43:15.855Z,7.0
2017-10-26T11:44:17.474Z,8.1
2017-10-26T11:45:19.092Z,7.6
2017-10-26T11:46:20.714Z,8.0
2017-10-26T11:47:22.334Z,7.3
2017-10-26T11:48:23.954Z,7.4
2017-10-26T11:49:25.576Z,8.9
2017-10-26T11:50:27.193Z,8.6
2017-10-26T11:51:28.814Z,8.1
2017-10-26T11:52:30.433Z,9.0
2017-10-26T11:53:32.057Z,9.2
2017-10-26T11:54:33.675Z,9.3
2017-10-26T11:55:35.292Z,8.5
2017-10-26T11:56:36.911Z,8.4
2017-10-26T11:57:38.529Z,8.8
2017-10-26T11:58:40.147Z,8.8
2017-10-26T11:59:41.769Z,8.8
2017-10-26T12:00:43.394Z,8.5
2017-10-26T12:01:45.001Z,8.9
2017-10-26T12:02:46.625Z,8.8
2017-10-26T12:03:48.241Z,9.0
2017-10-26T12:04:49.860Z,10.0
2017-10-26T12:05:51.477Z,9.5
2017-10-26T12:06:53.098Z,10.2
2017-10-26T12:07:54.720Z,10.8
2017-10-26T12:08:56.337Z,10.5
2017-10-26T12:09:57.964Z,10.3
2017-10-26T12:10:59.582Z,10.1
2017-10-26T12:12:01.200Z,10.5
2017-10-26T12:13:02.820Z,10.7
2017-10-26T12:14:04.441Z,10.2
2017-10-26T12:15:06.065Z,9.8
2017-10-26T12:16:07.683Z,9.6
2017-10-26T12:17:09.303Z,10.1
2017-10-26T12:18:10.925Z,10.5
2017-10-26T12:19:12.546Z,10.5
2017-10-26T12:20:14.164Z,10.0
2017-10-26T12:21:15.783Z,9.4
2017-10-26T12:22:17.400Z,9.5
2017-10-26T12:23:19.020Z,8.8
2017-10-26T12:24:20.643Z,9.0
2017-10-26T12:25:22.266Z,9.4
2017-10-26T12:26:23.886Z,9.2
2017-10-26T12:27:25.512Z,8.6
2017-10-26T12:28:27.126Z,8.3
2017-10-26T12:29:28.747Z,8.6
2017-10-26T12:30:30.368Z,8.4
2017-10-26T12:31:31.992Z,9.2
2017-10-26T12:32:33.616Z,9.3
2017-10-26T12:33:35.232Z,9.0
2017-10-26T12:34:36.854Z,8.6
2017-10-26T12:35:38.472Z,7.9
2017-10-26T12:36:40.095Z,8.6
2017-10-26T12:37:41.720Z,8.6
2017-10-26T12:38:43.341Z,8.6
2017-10-26T12:39:44.961Z,8.6
2017-10-26T12:40:46.584Z,8.7
2017-10-26T12:41:48.206Z,8.5
2017-10-26T12:42:49.827Z,9.2
2017-10-26T12:43:51.449Z,8.0
2017-10-26T12:44:53.071Z,7.5
2017-10-26T12:45:54.697Z,7.8
2017-10-26T12:46:56.322Z,7.8
2017-10-26T12:47:57.945Z,7.5
2017-10-26T12:48:59.565Z,7.9
2017-10-26T12:50:01.191Z,7.5
2017-10-26T12:51:02.818Z,7.4
2017-10-26T12:52:04.442Z,7.1
2017-10-26T12:53:06.074Z,6.6
2017-10-26T12:54:07.697Z,6.9
2017-10-26T12:55:09.317Z,6.6
2017-10-26T12:56:10.941Z,6.8
2017-10-26T12:57:12.566Z,7.2
2017-10-26T12:58:14.191Z,6.9
2017-10-26T12:59:15.814Z,6.7
2017-10-26T13:00:17.440Z,6.9
2017-10-26T13:01:19.066Z,6.7
2017-10-26T13:02:20.690Z,7.6
2017-10-26T13:03:22.314Z,6.9
2017-10-26T13:04:23.941Z,7.3
2017-10-26T13:05:25.570Z,7.1
2017-10-26T13:06:27.191Z,6.4
2017-10-26T13:07:28.821Z,6.1
2017-10-26T13:08:30.445Z,6.5
2017-10-26T13:09:32.066Z,7.6
2017-10-26T13:10:33.689Z,7.7
2017-10-26T13:11:35.309Z,7.3
2017-10-26T13:12:36.938Z,7.7
2017-10-26T13:13:38.560Z,7.4
2017-10-26T13:14:40.180Z,7.7
2017-10-26T13:15:41.807Z,7.5
2017-10-26T13:16:43.423Z,7.2
2017-10-26T13:17:45.046Z,6.1
2017-10-26T13:18:46.669Z,6.2
2017-10-26T13:19:48.296Z,6.1
2017-10-26T13:20:49.919Z,5.6
2017-10-26T13:21:51.541Z,5.0
2017-10-26T13:22:53.166Z,4.7
2017-10-26T13:23:54.790Z,5.2
2017-10-26T13:24:56.410Z,4.4
2017-10-26T13:25:58.039Z,4.8
2017-10-26T13:26:59.664Z,5.0
2017-10-26T13:28:01.275Z,5.4
2017-10-26T13:29:02.905Z,5.9
2017-10-26T13:30:04.532Z,4.9
2017-10-26T13:31:06.148Z,5.8
2017-10-26T13:32:07.765Z,5.6
2017-10-26T13:33:09.384Z,5.7
2017-10-26T13:34:11.010Z,6.2
2017-10-26T13:35:12.630Z,6.3
2017-10-26T13:36:14.256Z,6.1
2017-10-26T13:37:15.893Z,6.3
2017-10-26T13:38:17.505Z,6.2
2017-10-26T13:39:19.129Z,6.3
2017-10-26T13:40:20.747Z,6.9
2017-10-26T13:41:22.362Z,6.8
2017-10-26T13:42:23.986Z,6.8
2017-10-26T13:43:25.606Z,6.2
2017-10-26T13:44:27.227Z,6.5
2017-10-26T13:45:28.844Z,6.3
2017-10-26T13:46:30.469Z,6.8
2017-10-26T13:47:32.083Z,7.0